createdAt,value
2022-09-13T00:02:19.664Z,82.66
2022-09-13T00:04:46.621Z,82.58
2022-09-13T00:07:13.581Z,82.26
2022-09-13T00:09:40.630Z,82.22
2022-09-13T00:12:07.679Z,82.42
2022-09-13T00:14:34.613Z,82.06
2022-09-13T00:17:01.623Z,82.19
2022-09-13T00:19:28.580Z,81.76
2022-09-13T00:21:55.505Z,81.58
2022-09-13T00:24:22.385Z,81.01
2022-09-13T00:26:49.312Z,80.80
2022-09-13T00:29:16.348Z,81.24
2022-09-13T00:31:43.373Z,80.87
2022-09-13T00:34:10.256Z,80.51
2022-09-13T00:36:37.304Z,80.67
2022-09-13T00:39:04.203Z,80.48
2022-09-13T00:41:31.239Z,80.81
2022-09-13T00:44:01.138Z,80.70
2022-09-13T00:46:45.969Z,80.38
2022-09-13T00:49:37.065Z,80.33
2022-09-13T00:52:09.835Z,80.46
2022-09-13T00:54:52.548Z,80.36
2022-09-13T00:57:21.969Z,80.38
2022-09-13T01:00:12.143Z,80.31
2022-09-13T01:02:43.501Z,80.64
2022-09-13T01:05:11.950Z,80.80
2022-09-13T01:07:39.515Z,80.91
2022-09-13T01:10:07.794Z,81.03
2022-09-13T01:13:02.815Z,80.99
2022-09-13T01:15:29.754Z,81.23
2022-09-13T01:17:57.027Z,80.71
2022-09-13T01:20:54.508Z,80.87
2022-09-13T01:23:47.803Z,80.79
2022-09-13T01:26:20.404Z,80.99
2022-09-13T01:29:22.352Z,80.98
2022-09-13T01:32:07.561Z,80.96
2022-09-13T01:35:14.593Z,81.71
2022-09-13T01:37:58.072Z,81.65
2022-09-13T01:40:39.119Z,81.94
2022-09-13T01:43:40.021Z,82.33
2022-09-13T01:46:32.295Z,82.81
2022-09-13T01:49:12.989Z,83.01
2022-09-13T01:51:58.499Z,83.50
2022-09-13T01:54:39.865Z,84.35
2022-09-13T01:57:21.866Z,85.51
2022-09-13T01:59:54.140Z,85.97
2022-09-13T02:02:33.805Z,86.58
2022-09-13T02:05:07.960Z,86.92
2022-09-13T02:07:46.826Z,87.83
2022-09-13T02:10:27.713Z,88.62
2022-09-13T02:12:58.294Z,89.32
2022-09-13T02:15:53.323Z,89.67
2022-09-13T02:18:28.815Z,89.86
2022-09-13T02:21:03.864Z,90.65
2022-09-13T02:23:39.337Z,91.27
2022-09-13T02:26:08.060Z,91.67
2022-09-13T02:28:44.365Z,92.74
2022-09-13T02:31:13.194Z,93.02
2022-09-13T02:33:47.345Z,93.63
2022-09-13T02:36:26.009Z,94.17
2022-09-13T02:39:01.114Z,94.38
2022-09-13T02:42:12.326Z,95.01
2022-09-13T02:44:49.714Z,96.04
2022-09-13T02:47:40.956Z,96.56
2022-09-13T02:50:30.131Z,96.60
2022-09-13T02:53:44.802Z,97.52
2022-09-13T02:56:34.368Z,98.67
2022-09-13T02:59:17.337Z,98.73
2022-09-13T03:02:04.698Z,99.44
2022-09-13T03:04:34.413Z,99.86
2022-09-13T03:07:04.481Z,100.00
2022-09-13T03:09:32.727Z,100.00
2022-09-13T03:13:01.322Z,100.00
2022-09-13T03:15:46.358Z,100.00
2022-09-13T03:18:32.076Z,100.00
2022-09-13T03:21:43.293Z,100.00
2022-09-13T03:24:58.823Z,100.00
2022-09-13T03:28:21.319Z,100.00
2022-09-13T03:31:01.221Z,100.00
2022-09-13T03:34:01.758Z,100.00
2022-09-13T03:36:44.705Z,100.00
2022-09-13T03:39:50.582Z,100.00
2022-09-13T03:42:48.540Z,100.00
2022-09-13T03:45:19.811Z,100.00
2022-09-13T03:47:48.846Z,100.00
2022-09-13T03:50:21.663Z,100.00
2022-09-13T03:53:01.860Z,100.00
2022-09-13T03:55:31.774Z,100.00
2022-09-13T03:57:58.683Z,100.00
2022-09-13T04:00:25.808Z,100.00
2022-09-13T04:02:52.817Z,100.00
2022-09-13T04:05:19.743Z,100.00
2022-09-13T04:07:46.690Z,100.00
2022-09-13T04:10:14.264Z,100.00
2022-09-13T04:12:41.475Z,100.00
2022-09-13T04:15:09.321Z,100.00
2022-09-13T04:17:36.363Z,100.00
2022-09-13T04:20:05.471Z,100.00
2022-09-13T04:22:33.558Z,100.00
2022-09-13T04:25:02.561Z,100.00
2022-09-13T04:27:29.864Z,100.00
2022-09-13T04:29:56.805Z,100.00
2022-09-13T04:32:23.772Z,100.00
2022-09-13T04:34:50.683Z,100.00
2022-09-13T04:37:17.829Z,100.00
2022-09-13T04:39:44.781Z,100.00
2022-09-13T04:42:11.859Z,100.00
2022-09-13T04:44:39.060Z,100.00
2022-09-13T04:47:08.126Z,100.00
2022-09-13T04:49:35.139Z,100.00
2022-09-13T04:52:02.340Z,100.00
2022-09-13T04:54:29.247Z,100.00
2022-09-13T04:56:56.172Z,100.00
2022-09-13T04:59:23.424Z,100.00
2022-09-13T05:01:50.356Z,100.00
2022-09-13T05:04:17.401Z,100.00
2022-09-13T05:06:44.311Z,100.00
2022-09-13T05:09:14.614Z,100.00
2022-09-13T05:11:42.300Z,100.00
2022-09-13T05:14:12.690Z,100.00
2022-09-13T05:16:39.907Z,100.00
2022-09-13T05:19:06.842Z,100.00
2022-09-13T05:21:33.765Z,100.00
2022-09-13T05:24:00.947Z,100.00
2022-09-13T05:26:31.349Z,100.00
2022-09-13T05:29:02.344Z,100.00
2022-09-13T05:31:36.954Z,100.00
2022-09-13T05:34:10.743Z,100.00
2022-09-13T05:36:38.312Z,100.00
2022-09-13T05:39:28.995Z,100.00
2022-09-13T05:41:53.527Z,100.00
2022-09-13T05:44:20.568Z,100.00
2022-09-13T05:46:48.653Z,100.00
2022-09-13T05:49:15.783Z,100.00
2022-09-13T05:51:43.542Z,100.00
2022-09-13T05:54:12.838Z,100.00
2022-09-13T05:56:40.268Z,100.00
2022-09-13T05:59:08.908Z,100.00
2022-09-13T06:01:36.689Z,100.00
2022-09-13T06:04:03.697Z,100.00
2022-09-13T06:06:30.604Z,100.00
2022-09-13T06:08:58.138Z,100.00
2022-09-13T06:11:26.731Z,100.00
2022-09-13T06:13:54.146Z,100.00
2022-09-13T06:16:21.790Z,100.00
2022-09-13T06:18:49.963Z,100.00
2022-09-13T06:21:22.199Z,100.00
2022-09-13T06:23:54.051Z,100.00
2022-09-13T06:26:24.951Z,100.00
2022-09-13T06:28:55.045Z,100.00
2022-09-13T06:31:25.191Z,100.00
2022-09-13T06:33:58.756Z,100.00
2022-09-13T06:36:26.489Z,100.00
2022-09-13T06:38:53.406Z,100.00
2022-09-13T06:41:23.773Z,100.00
2022-09-13T06:43:58.805Z,100.00
2022-09-13T06:46:28.871Z,100.00
2022-09-13T06:48:59.353Z,100.00
2022-09-13T06:51:27.319Z,100.00
2022-09-13T06:53:56.691Z,100.00
2022-09-13T06:56:30.802Z,100.00
2022-09-13T06:59:07.442Z,100.00
2022-09-13T07:01:40.700Z,100.00
2022-09-13T07:04:11.045Z,100.00
2022-09-13T07:06:47.662Z,100.00
2022-09-13T07:09:18.922Z,100.00
2022-09-13T07:11:47.243Z,100.00
2022-09-13T07:14:17.366Z,100.00
2022-09-13T07:16:46.091Z,100.00
2022-09-13T07:19:16.474Z,100.00
2022-09-13T07:21:44.425Z,100.00
2022-09-13T07:24:12.301Z,100.00
2022-09-13T07:26:39.397Z,100.00
2022-09-13T07:29:09.292Z,100.00
2022-09-13T07:31:39.854Z,100.00
2022-09-13T07:34:12.994Z,100.00
2022-09-13T07:36:39.967Z,100.00
2022-09-13T07:39:09.871Z,100.00
2022-09-13T07:41:39.711Z,100.00
2022-09-13T07:44:07.981Z,100.00
2022-09-13T07:46:39.904Z,100.00
2022-09-13T07:49:07.904Z,100.00
2022-09-13T07:51:39.585Z,100.00
2022-09-13T07:54:13.175Z,100.00
2022-09-13T07:56:41.929Z,100.00
2022-09-13T07:59:14.191Z,100.00
2022-09-13T08:01:47.559Z,100.00
2022-09-13T08:04:18.847Z,100.00
2022-09-13T08:06:46.898Z,100.00
2022-09-13T08:09:15.565Z,100.00
2022-09-13T08:11:49.006Z,100.00
2022-09-13T08:14:18.155Z,100.00
2022-09-13T08:16:45.217Z,100.00
2022-09-13T08:19:16.100Z,100.00
2022-09-13T08:21:44.326Z,100.00
2022-09-13T08:24:21.253Z,100.00
2022-09-13T08:26:48.939Z,100.00
2022-09-13T08:29:16.716Z,100.00
2022-09-13T08:31:44.229Z,100.00
2022-09-13T08:34:14.549Z,100.00
2022-09-13T08:36:42.114Z,100.00
2022-09-13T08:39:10.424Z,100.00
2022-09-13T08:41:40.304Z,100.00
2022-09-13T08:44:33.494Z,100.00
2022-09-13T08:47:22.094Z,100.00
2022-09-13T08:49:53.101Z,100.00
2022-09-13T08:53:05.805Z,100.00
2022-09-13T08:55:43.708Z,100.00
2022-09-13T08:58:56.741Z,100.00
2022-09-13T09:01:36.265Z,100.00
2022-09-13T09:04:15.092Z,100.00
2022-09-13T09:06:43.298Z,100.00
2022-09-13T09:09:21.997Z,100.00
2022-09-13T09:12:17.232Z,100.00
2022-09-13T09:14:57.261Z,100.00
2022-09-13T09:17:31.071Z,100.00
2022-09-13T09:20:18.943Z,100.00
2022-09-13T09:22:47.818Z,100.00
2022-09-13T09:25:14.747Z,100.00
2022-09-13T09:27:41.754Z,100.00
2022-09-13T09:30:16.656Z,100.00
2022-09-13T09:33:01.586Z,100.00
2022-09-13T09:36:08.938Z,100.00
2022-09-13T09:38:43.809Z,100.00
2022-09-13T09:41:29.058Z,100.00
2022-09-13T09:44:22.371Z,100.00
2022-09-13T09:47:25.940Z,100.00
2022-09-13T09:50:16.473Z,100.00
2022-09-13T09:53:09.846Z,100.00
2022-09-13T09:55:53.317Z,100.00
2022-09-13T09:58:36.440Z,100.00
2022-09-13T10:01:04.013Z,100.00
2022-09-13T10:03:34.026Z,100.00
2022-09-13T10:06:14.547Z,100.00
2022-09-13T10:08:44.237Z,100.00
2022-09-13T10:11:12.141Z,100.00
2022-09-13T10:13:59.440Z,100.00
2022-09-13T10:16:29.816Z,100.00
2022-09-13T10:19:26.693Z,100.00
2022-09-13T10:22:06.262Z,100.00
2022-09-13T10:24:33.331Z,100.00
2022-09-13T10:27:00.909Z,100.00
2022-09-13T10:29:29.171Z,100.00
2022-09-13T10:32:03.640Z,100.00
2022-09-13T10:34:34.601Z,100.00
2022-09-13T10:37:11.328Z,100.00
2022-09-13T10:40:00.360Z,100.00
2022-09-13T10:42:29.546Z,100.00
2022-09-13T10:45:05.010Z,100.00
2022-09-13T10:47:39.153Z,100.00
2022-09-13T10:50:31.091Z,100.00
2022-09-13T10:53:00.029Z,100.00
2022-09-13T10:55:43.952Z,100.00
2022-09-13T10:58:10.902Z,100.00
2022-09-13T11:01:16.948Z,100.00
2022-09-13T11:04:05.011Z,100.00
2022-09-13T11:06:53.932Z,100.00
2022-09-13T11:09:46.219Z,100.00
2022-09-13T11:12:28.416Z,100.00
2022-09-13T11:15:21.616Z,100.00
2022-09-13T11:17:58.428Z,100.00
2022-09-13T11:20:45.556Z,100.00
2022-09-13T11:23:51.276Z,100.00
2022-09-13T11:26:38.448Z,100.00
2022-09-13T11:29:29.992Z,100.00
2022-09-13T11:32:53.711Z,100.00
2022-09-13T11:36:00.939Z,100.00
2022-09-13T11:38:33.530Z,100.00
2022-09-13T11:41:22.864Z,100.00
2022-09-13T11:44:17.284Z,100.00
2022-09-13T11:47:11.550Z,100.00
2022-09-13T11:50:15.918Z,100.00
2022-09-13T11:53:22.979Z,100.00
2022-09-13T11:56:05.178Z,97.19
2022-09-13T11:59:01.146Z,93.45
2022-09-13T12:01:42.432Z,92.10
2022-09-13T12:04:27.761Z,92.31
2022-09-13T12:07:12.713Z,91.61
2022-09-13T12:09:55.214Z,91.35
2022-09-13T12:12:26.430Z,88.87
2022-09-13T12:15:02.210Z,89.79
2022-09-13T12:17:48.159Z,89.09
2022-09-13T12:20:33.444Z,82.33
2022-09-13T12:23:05.288Z,83.02
2022-09-13T12:25:46.481Z,81.54
2022-09-13T12:28:29.366Z,79.29
2022-09-13T12:31:02.929Z,80.36
2022-09-13T12:33:30.294Z,77.26
2022-09-13T12:36:12.385Z,75.25
2022-09-13T12:39:06.955Z,75.78
2022-09-13T12:42:02.661Z,73.39
2022-09-13T12:44:43.362Z,72.70
2022-09-13T12:48:06.645Z,72.52
2022-09-13T12:51:11.329Z,72.33
2022-09-13T12:53:57.382Z,72.58
2022-09-13T12:57:21.731Z,70.80
2022-09-13T13:00:11.565Z,71.29
2022-09-13T13:02:41.284Z,71.24
2022-09-13T13:05:54.257Z,70.48
2022-09-13T13:08:21.164Z,70.43
2022-09-13T13:11:26.211Z,69.92
2022-09-13T13:14:09.243Z,69.60
2022-09-13T13:16:48.201Z,67.60
2022-09-13T13:19:34.037Z,67.94
2022-09-13T13:22:44.857Z,67.27
2022-09-13T13:25:38.919Z,67.10
2022-09-13T13:28:43.145Z,66.04
2022-09-13T13:31:25.247Z,65.79
2022-09-13T13:34:13.921Z,62.86
2022-09-13T13:36:40.985Z,63.31
2022-09-13T13:39:33.767Z,61.77
2022-09-13T13:42:27.630Z,60.14
2022-09-13T13:44:54.384Z,59.71
2022-09-13T13:47:21.147Z,59.35
2022-09-13T13:50:07.214Z,57.86
2022-09-13T13:52:40.752Z,58.24
2022-09-13T13:55:45.751Z,57.52
2022-09-13T13:58:38.002Z,57.96
2022-09-13T14:01:06.455Z,58.40
2022-09-13T14:04:09.986Z,58.10
2022-09-13T14:07:06.122Z,57.11
2022-09-13T14:10:01.258Z,57.34
2022-09-13T14:12:54.302Z,58.54
2022-09-13T14:15:51.904Z,58.81
2022-09-13T14:18:39.377Z,58.71
2022-09-13T14:21:27.460Z,58.39
2022-09-13T14:24:24.634Z,57.13
2022-09-13T14:26:59.018Z,57.99
2022-09-13T14:29:26.575Z,57.55
2022-09-13T14:32:04.304Z,56.78
2022-09-13T14:34:36.300Z,57.41
2022-09-13T14:37:16.516Z,56.14
2022-09-13T14:40:18.839Z,56.83
2022-09-13T14:42:49.048Z,55.13
2022-09-13T14:45:31.658Z,53.73
2022-09-13T14:48:15.631Z,54.27
2022-09-13T14:50:55.295Z,55.83
2022-09-13T14:53:25.712Z,55.49
2022-09-13T14:56:13.192Z,54.22
2022-09-13T14:58:58.595Z,54.51
2022-09-13T15:01:33.591Z,55.23
2022-09-13T15:04:04.560Z,55.01
2022-09-13T15:06:39.046Z,54.21
2022-09-13T15:09:11.726Z,54.85
2022-09-13T15:11:52.549Z,55.78
2022-09-13T15:14:35.054Z,55.92
2022-09-13T15:17:10.183Z,56.31
2022-09-13T15:19:51.388Z,56.64
2022-09-13T15:22:24.735Z,57.34
2022-09-13T15:24:58.159Z,57.76
2022-09-13T15:27:31.514Z,58.35
2022-09-13T15:30:05.875Z,57.17
2022-09-13T15:32:44.163Z,57.52
2022-09-13T15:35:29.371Z,57.69
2022-09-13T15:38:19.743Z,58.48
2022-09-13T15:41:00.503Z,58.72
2022-09-13T15:43:28.266Z,59.24
2022-09-13T15:45:58.371Z,59.57
2022-09-13T15:48:33.045Z,59.47
2022-09-13T15:51:11.264Z,59.56
2022-09-13T15:53:44.593Z,59.63
2022-09-13T15:56:19.396Z,60.75
2022-09-13T15:58:47.205Z,59.92
2022-09-13T16:01:16.197Z,59.84
2022-09-13T16:03:43.295Z,60.39
2022-09-13T16:06:10.988Z,59.63
2022-09-13T16:08:39.069Z,59.92
2022-09-13T16:11:06.942Z,59.83
2022-09-13T16:13:34.653Z,59.65
2022-09-13T16:16:01.964Z,59.86
2022-09-13T16:18:28.962Z,60.18
2022-09-13T16:20:55.941Z,60.08
2022-09-13T16:23:23.058Z,59.68
2022-09-13T16:25:56.340Z,60.03
2022-09-13T16:28:25.920Z,59.11
2022-09-13T16:30:53.911Z,59.37
2022-09-13T16:33:21.193Z,60.73
2022-09-13T16:35:48.391Z,61.14
2022-09-13T16:38:15.735Z,61.10
2022-09-13T16:40:45.060Z,61.55
2022-09-13T16:43:14.687Z,61.54
2022-09-13T16:45:42.964Z,62.08
2022-09-13T16:48:09.895Z,62.48
2022-09-13T16:50:40.902Z,62.49
2022-09-13T16:53:09.319Z,63.14
2022-09-13T16:55:36.448Z,62.85
2022-09-13T16:58:03.573Z,63.54
2022-09-13T17:00:30.549Z,63.15
2022-09-13T17:02:57.660Z,63.47
2022-09-13T17:05:25.811Z,64.03
2022-09-13T17:07:53.179Z,63.95
2022-09-13T17:10:21.720Z,64.28
2022-09-13T17:12:49.214Z,64.67
2022-09-13T17:15:16.572Z,65.34
2022-09-13T17:17:44.020Z,65.16
2022-09-13T17:20:13.239Z,65.42
2022-09-13T17:22:40.529Z,66.02
2022-09-13T17:25:08.221Z,66.10
2022-09-13T17:27:35.993Z,66.11
2022-09-13T17:30:04.970Z,67.11
2022-09-13T17:32:31.971Z,67.62
2022-09-13T17:34:59.100Z,68.09
2022-09-13T17:37:26.050Z,68.77
2022-09-13T17:39:52.968Z,68.96
2022-09-13T17:42:23.109Z,68.81
2022-09-13T17:44:50.687Z,69.06
2022-09-13T17:47:17.564Z,69.59
2022-09-13T17:49:45.517Z,69.69
2022-09-13T17:52:12.540Z,69.52
2022-09-13T17:54:39.555Z,69.56
2022-09-13T17:57:06.708Z,69.76
2022-09-13T17:59:34.275Z,70.16
2022-09-13T18:02:01.408Z,70.44
2022-09-13T18:04:28.450Z,70.96
2022-09-13T18:06:55.964Z,71.48
2022-09-13T18:09:24.232Z,71.13
2022-09-13T18:11:51.562Z,71.66
2022-09-13T18:14:19.603Z,72.00
2022-09-13T18:16:49.206Z,72.65
2022-09-13T18:19:16.185Z,73.25
2022-09-13T18:21:43.536Z,73.05
2022-09-13T18:24:10.544Z,73.72
2022-09-13T18:26:38.003Z,74.01
2022-09-13T18:29:10.405Z,74.44
2022-09-13T18:31:38.326Z,74.42
2022-09-13T18:34:10.372Z,74.65
2022-09-13T18:36:37.921Z,75.02
2022-09-13T18:39:06.980Z,75.23
2022-09-13T18:41:36.909Z,75.78
2022-09-13T18:44:07.174Z,76.08
2022-09-13T18:46:35.529Z,76.51
2022-09-13T18:49:04.758Z,76.55
2022-09-13T18:51:44.386Z,76.70
2022-09-13T18:54:16.002Z,77.04
2022-09-13T18:56:46.210Z,76.95
2022-09-13T18:59:13.635Z,77.81
2022-09-13T19:01:42.846Z,77.58
2022-09-13T19:04:20.177Z,78.15
2022-09-13T19:06:53.422Z,78.59
2022-09-13T19:09:20.941Z,78.58
2022-09-13T19:11:51.840Z,78.42
2022-09-13T19:14:25.395Z,78.64
2022-09-13T19:16:55.750Z,78.80
2022-09-13T19:19:23.826Z,78.88
2022-09-13T19:21:50.853Z,79.08
2022-09-13T19:24:19.479Z,79.35
2022-09-13T19:26:50.736Z,79.90
2022-09-13T19:29:21.209Z,80.49
2022-09-13T19:31:49.451Z,80.22
2022-09-13T19:34:20.035Z,80.61
2022-09-13T19:36:49.502Z,80.90
2022-09-13T19:39:16.581Z,81.13
2022-09-13T19:41:43.903Z,81.26
2022-09-13T19:44:13.019Z,81.40
2022-09-13T19:46:42.088Z,81.25
2022-09-13T19:49:14.168Z,81.09
2022-09-13T19:51:45.465Z,81.17
2022-09-13T19:54:18.047Z,81.25
2022-09-13T19:56:45.092Z,82.04
2022-09-13T19:59:15.692Z,82.48
2022-09-13T20:01:45.021Z,82.58
2022-09-13T20:04:15.607Z,83.20
2022-09-13T20:06:46.989Z,82.87
2022-09-13T20:09:17.270Z,83.24
2022-09-13T20:11:45.513Z,83.74
2022-09-13T20:14:14.962Z,84.36
2022-09-13T20:16:42.922Z,84.75
2022-09-13T20:19:39.443Z,84.74
2022-09-13T20:22:07.424Z,84.66
2022-09-13T20:24:34.390Z,84.65
2022-09-13T20:27:01.289Z,84.81
2022-09-13T20:29:28.165Z,85.29
2022-09-13T20:31:55.650Z,85.43
2022-09-13T20:34:22.720Z,85.58
2022-09-13T20:36:50.058Z,86.02
2022-09-13T20:39:17.258Z,86.08
2022-09-13T20:41:45.015Z,86.62
2022-09-13T20:44:12.211Z,86.78
2022-09-13T20:46:40.510Z,86.73
2022-09-13T20:49:09.086Z,86.66
2022-09-13T20:51:37.180Z,87.13
2022-09-13T20:54:05.082Z,86.98
2022-09-13T20:56:34.234Z,87.37
2022-09-13T20:59:01.949Z,87.44
2022-09-13T21:01:31.546Z,87.90
2022-09-13T21:04:00.516Z,88.53
2022-09-13T21:06:30.429Z,89.07
2022-09-13T21:09:01.454Z,89.37
2022-09-13T21:11:35.336Z,90.01
2022-09-13T21:14:09.741Z,90.48
2022-09-13T21:16:40.660Z,90.20
2022-09-13T21:19:09.092Z,89.58
2022-09-13T21:21:39.337Z,89.14
2022-09-13T21:24:09.869Z,88.95
2022-09-13T21:26:42.688Z,89.83
2022-09-13T21:29:11.680Z,90.47
2022-09-13T21:31:39.636Z,90.80
2022-09-13T21:34:15.838Z,91.09
2022-09-13T21:36:44.345Z,91.56
2022-09-13T21:39:12.496Z,91.87
2022-09-13T21:41:39.970Z,92.04
2022-09-13T21:44:07.277Z,91.73
2022-09-13T21:46:36.759Z,92.07
2022-09-13T21:49:07.078Z,91.75
2022-09-13T21:51:40.929Z,91.96
2022-09-13T21:54:11.920Z,91.48
2022-09-13T21:56:42.253Z,91.34
2022-09-13T21:59:16.712Z,91.55
2022-09-13T22:01:47.270Z,91.85
2022-09-13T22:04:22.390Z,92.14
2022-09-13T22:06:53.787Z,92.63
2022-09-13T22:09:24.670Z,93.05
2022-09-13T22:11:51.905Z,93.30
2022-09-13T22:14:22.205Z,93.45
2022-09-13T22:16:52.502Z,93.18
2022-09-13T22:19:23.872Z,93.56
2022-09-13T22:21:55.568Z,94.21
2022-09-13T22:24:25.658Z,94.33
2022-09-13T22:26:56.623Z,95.04
2022-09-13T22:29:23.957Z,95.28
2022-09-13T22:31:52.266Z,95.43
2022-09-13T22:34:23.640Z,95.48
2022-09-13T22:36:50.642Z,95.34
2022-09-13T22:39:18.050Z,95.81
2022-09-13T22:41:45.450Z,96.36
2022-09-13T22:44:13.169Z,96.33
2022-09-13T22:46:43.809Z,96.97
2022-09-13T22:49:18.235Z,97.06
2022-09-13T22:51:46.963Z,97.48
2022-09-13T22:54:15.892Z,97.78
2022-09-13T22:56:43.591Z,98.29
2022-09-13T22:59:17.049Z,98.50
2022-09-13T23:01:44.637Z,99.12
2022-09-13T23:04:12.326Z,99.23
2022-09-13T23:06:39.815Z,99.55
2022-09-13T23:09:08.628Z,99.31
2022-09-13T23:11:39.428Z,98.88
2022-09-13T23:14:13.600Z,98.92
2022-09-13T23:16:46.946Z,98.89
2022-09-13T23:19:14.777Z,99.05
2022-09-13T23:21:43.082Z,99.14
2022-09-13T23:24:17.142Z,99.64
2022-09-13T23:26:45.224Z,99.34
2022-09-13T23:29:16.166Z,99.50
2022-09-13T23:31:43.965Z,99.12
2022-09-13T23:34:12.453Z,100.00
2022-09-13T23:36:41.467Z,100.00
2022-09-13T23:39:17.725Z,100.00
2022-09-13T23:41:47.201Z,100.00
2022-09-13T23:44:15.133Z,100.00
2022-09-13T23:46:42.679Z,100.00
2022-09-13T23:49:09.755Z,100.00
2022-09-13T23:51:36.918Z,100.00
2022-09-13T23:54:03.927Z,100.00
2022-09-13T23:56:32.113Z,100.00
2022-09-13T23:59:00.851Z,100.00
